sensor_id;sensor_type;location;lat;lon;timestamp;temperature;humidity
20845;DHT22;10583;49.084;8.646;2022-09-12T00:00:51;12.90;99.90
20845;DHT22;10583;49.084;8.646;2022-09-12T00:03:28;12.90;99.90
20845;DHT22;10583;49.084;8.646;2022-09-12T00:05:54;12.90;99.90
20845;DHT22;10583;49.084;8.646;2022-09-12T00:08:21;12.90;99.90
20845;DHT22;10583;49.084;8.646;2022-09-12T00:10:49;12.90;99.90
20845;DHT22;10583;49.084;8.646;2022-09-12T00:13:16;12.80;99.90
20845;DHT22;10583;49.084;8.646;2022-09-12T00:15:43;12.80;99.90
20845;DHT22;10583;49.084;8.646;2022-09-12T00:18:12;12.80;99.90
20845;DHT22;10583;49.084;8.646;2022-09-12T00:20:40;12.90;99.90
20845;DHT22;10583;49.084;8.646;2022-09-12T00:23:07;12.80;99.90
20845;DHT22;10583;49.084;8.646;2022-09-12T00:25:39;12.80;99.90
20845;DHT22;10583;49.084;8.646;2022-09-12T00:28:07;12.80;99.90
20845;DHT22;10583;49.084;8.646;2022-09-12T00:30:34;12.90;99.90
20845;DHT22;10583;49.084;8.646;2022-09-12T00:33:00;12.70;99.90
20845;DHT22;10583;49.084;8.646;2022-09-12T00:35:27;12.70;99.90
20845;DHT22;10583;49.084;8.646;2022-09-12T00:37:54;12.80;99.90
20845;DHT22;10583;49.084;8.646;2022-09-12T00:40:20;12.70;99.90
20845;DHT22;10583;49.084;8.646;2022-09-12T00:42:47;12.70;99.90
20845;DHT22;10583;49.084;8.646;2022-09-12T00:45:20;12.70;99.90
20845;DHT22;10583;49.084;8.646;2022-09-12T00:47:48;12.70;99.90
20845;DHT22;10583;49.084;8.646;2022-09-12T00:50:15;12.70;99.90
20845;DHT22;10583;49.084;8.646;2022-09-12T00:52:45;12.70;99.90
20845;DHT22;10583;49.084;8.646;2022-09-12T00:55:16;12.70;99.90
20845;DHT22;10583;49.084;8.646;2022-09-12T00:57:49;12.70;99.90
20845;DHT22;10583;49.084;8.646;2022-09-12T01:00:20;12.70;99.90
20845;DHT22;10583;49.084;8.646;2022-09-12T01:02:50;12.70;99.90
20845;DHT22;10583;49.084;8.646;2022-09-12T01:05:18;12.70;99.90
20845;DHT22;10583;49.084;8.646;2022-09-12T01:07:46;12.60;99.90
20845;DHT22;10583;49.084;8.646;2022-09-12T01:10:14;12.60;99.90
20845;DHT22;10583;49.084;8.646;2022-09-12T01:12:42;12.60;99.90
20845;DHT22;10583;49.084;8.646;2022-09-12T01:15:10;12.50;99.90
20845;DHT22;10583;49.084;8.646;2022-09-12T01:17:53;12.50;99.90
20845;DHT22;10583;49.084;8.646;2022-09-12T01:20:43;12.50;99.90
20845;DHT22;10583;49.084;8.646;2022-09-12T01:29:18;12.40;99.90
20845;DHT22;10583;49.084;8.646;2022-09-12T01:31:56;12.40;99.90
20845;DHT22;10583;49.084;8.646;2022-09-12T01:34:33;12.40;99.90
20845;DHT22;10583;49.084;8.646;2022-09-12T01:37:09;12.30;99.90
20845;DHT22;10583;49.084;8.646;2022-09-12T01:39:43;12.30;99.90
20845;DHT22;10583;49.084;8.646;2022-09-12T01:42:19;12.30;99.90
20845;DHT22;10583;49.084;8.646;2022-09-12T01:44:55;12.30;99.90
20845;DHT22;10583;49.084;8.646;2022-09-12T01:47:33;12.20;99.90
20845;DHT22;10583;49.084;8.646;2022-09-12T01:50:05;12.20;99.90
20845;DHT22;10583;49.084;8.646;2022-09-12T01:52:37;12.30;99.90
20845;DHT22;10583;49.084;8.646;2022-09-12T01:55:11;12.20;99.90
20845;DHT22;10583;49.084;8.646;2022-09-12T01:57:43;12.20;99.90
20845;DHT22;10583;49.084;8.646;2022-09-12T02:00:12;12.20;99.90
20845;DHT22;10583;49.084;8.646;2022-09-12T02:02:44;12.20;99.90
20845;DHT22;10583;49.084;8.646;2022-09-12T02:05:16;12.20;99.90
20845;DHT22;10583;49.084;8.646;2022-09-12T02:07:47;12.10;99.90
20845;DHT22;10583;49.084;8.646;2022-09-12T02:10:18;12.00;99.90
20845;DHT22;10583;49.084;8.646;2022-09-12T02:12:48;12.00;99.90
20845;DHT22;10583;49.084;8.646;2022-09-12T02:15:19;12.00;99.90
20845;DHT22;10583;49.084;8.646;2022-09-12T02:17:51;11.90;99.90
20845;DHT22;10583;49.084;8.646;2022-09-12T02:20:21;11.90;99.90
20845;DHT22;10583;49.084;8.646;2022-09-12T02:22:49;11.80;99.90
20845;DHT22;10583;49.084;8.646;2022-09-12T02:25:18;11.90;99.90
20845;DHT22;10583;49.084;8.646;2022-09-12T02:27:48;11.90;99.90
20845;DHT22;10583;49.084;8.646;2022-09-12T02:30:16;11.90;99.90
20845;DHT22;10583;49.084;8.646;2022-09-12T02:32:53;11.90;99.90
20845;DHT22;10583;49.084;8.646;2022-09-12T02:35:30;11.90;99.90
20845;DHT22;10583;49.084;8.646;2022-09-12T02:38:03;11.90;99.90
20845;DHT22;10583;49.084;8.646;2022-09-12T02:40:33;11.80;99.90
20845;DHT22;10583;49.084;8.646;2022-09-12T02:43:00;11.80;99.90
20845;DHT22;10583;49.084;8.646;2022-09-12T02:45:28;11.80;99.90
20845;DHT22;10583;49.084;8.646;2022-09-12T02:48:00;11.70;99.90
20845;DHT22;10583;49.084;8.646;2022-09-12T02:50:28;11.70;99.90
20845;DHT22;10583;49.084;8.646;2022-09-12T02:52:55;11.60;99.90
20845;DHT22;10583;49.084;8.646;2022-09-12T02:55:25;11.50;99.90
20845;DHT22;10583;49.084;8.646;2022-09-12T02:57:52;11.50;99.90
20845;DHT22;10583;49.084;8.646;2022-09-12T03:00:19;11.60;99.90
20845;DHT22;10583;49.084;8.646;2022-09-12T03:03:04;11.60;99.90
20845;DHT22;10583;49.084;8.646;2022-09-12T03:05:37;11.50;99.90
20845;DHT22;10583;49.084;8.646;2022-09-12T03:11:28;11.50;99.90
20845;DHT22;10583;49.084;8.646;2022-09-12T03:14:06;11.50;99.90
20845;DHT22;10583;49.084;8.646;2022-09-12T03:16:42;11.50;99.90
20845;DHT22;10583;49.084;8.646;2022-09-12T03:19:17;11.50;99.90
20845;DHT22;10583;49.084;8.646;2022-09-12T03:22:02;11.40;99.90
20845;DHT22;10583;49.084;8.646;2022-09-12T03:24:35;11.40;99.90
20845;DHT22;10583;49.084;8.646;2022-09-12T03:27:08;11.40;99.90
20845;DHT22;10583;49.084;8.646;2022-09-12T03:29:37;11.40;99.90
20845;DHT22;10583;49.084;8.646;2022-09-12T03:32:05;11.40;99.90
20845;DHT22;10583;49.084;8.646;2022-09-12T03:34:34;11.40;99.90
20845;DHT22;10583;49.084;8.646;2022-09-12T03:37:01;11.40;99.90
20845;DHT22;10583;49.084;8.646;2022-09-12T03:39:28;11.40;99.90
20845;DHT22;10583;49.084;8.646;2022-09-12T03:41:55;11.50;99.90
20845;DHT22;10583;49.084;8.646;2022-09-12T03:44:23;11.50;99.90
20845;DHT22;10583;49.084;8.646;2022-09-12T03:46:50;11.40;99.90
20845;DHT22;10583;49.084;8.646;2022-09-12T03:49:16;11.50;99.90
20845;DHT22;10583;49.084;8.646;2022-09-12T03:51:44;11.50;99.90
20845;DHT22;10583;49.084;8.646;2022-09-12T03:54:11;11.50;99.90
20845;DHT22;10583;49.084;8.646;2022-09-12T03:56:38;11.60;99.90
20845;DHT22;10583;49.084;8.646;2022-09-12T03:59:05;11.60;99.90
20845;DHT22;10583;49.084;8.646;2022-09-12T04:01:32;11.60;99.90
20845;DHT22;10583;49.084;8.646;2022-09-12T04:03:59;11.70;99.90
20845;DHT22;10583;49.084;8.646;2022-09-12T04:06:26;11.60;99.90
20845;DHT22;10583;49.084;8.646;2022-09-12T04:08:54;11.60;99.90
20845;DHT22;10583;49.084;8.646;2022-09-12T04:11:22;11.50;99.90
20845;DHT22;10583;49.084;8.646;2022-09-12T04:13:49;11.50;99.90
20845;DHT22;10583;49.084;8.646;2022-09-12T04:16:17;11.50;99.90
20845;DHT22;10583;49.084;8.646;2022-09-12T04:18:44;11.50;99.90
20845;DHT22;10583;49.084;8.646;2022-09-12T04:21:13;11.50;99.90
20845;DHT22;10583;49.084;8.646;2022-09-12T04:23:41;11.50;99.90
20845;DHT22;10583;49.084;8.646;2022-09-12T04:26:09;11.50;99.90
20845;DHT22;10583;49.084;8.646;2022-09-12T04:28:38;11.50;99.90
20845;DHT22;10583;49.084;8.646;2022-09-12T04:31:07;11.40;99.90
20845;DHT22;10583;49.084;8.646;2022-09-12T04:33:34;11.40;99.90
20845;DHT22;10583;49.084;8.646;2022-09-12T04:36:05;11.40;99.90
20845;DHT22;10583;49.084;8.646;2022-09-12T04:38:34;11.40;99.90
20845;DHT22;10583;49.084;8.646;2022-09-12T04:41:11;11.40;99.90
20845;DHT22;10583;49.084;8.646;2022-09-12T04:43:38;11.40;99.90
20845;DHT22;10583;49.084;8.646;2022-09-12T04:46:05;11.40;99.90
20845;DHT22;10583;49.084;8.646;2022-09-12T04:48:35;11.30;99.90
20845;DHT22;10583;49.084;8.646;2022-09-12T04:51:07;11.40;99.90
20845;DHT22;10583;49.084;8.646;2022-09-12T04:53:33;11.40;99.90
20845;DHT22;10583;49.084;8.646;2022-09-12T04:56:01;11.40;99.90
20845;DHT22;10583;49.084;8.646;2022-09-12T04:58:30;11.40;99.90
20845;DHT22;10583;49.084;8.646;2022-09-12T05:01:03;11.40;99.90
20845;DHT22;10583;49.084;8.646;2022-09-12T05:03:30;11.30;99.90
20845;DHT22;10583;49.084;8.646;2022-09-12T05:05:57;11.40;99.90
20845;DHT22;10583;49.084;8.646;2022-09-12T05:08:24;11.30;99.90
20845;DHT22;10583;49.084;8.646;2022-09-12T05:10:51;11.20;99.90
20845;DHT22;10583;49.084;8.646;2022-09-12T05:13:18;11.30;99.90
20845;DHT22;10583;49.084;8.646;2022-09-12T05:15:54;11.30;99.90
20845;DHT22;10583;49.084;8.646;2022-09-12T05:18:20;11.30;99.90
20845;DHT22;10583;49.084;8.646;2022-09-12T05:20:47;11.40;99.90
20845;DHT22;10583;49.084;8.646;2022-09-12T05:23:14;11.40;99.90
20845;DHT22;10583;49.084;8.646;2022-09-12T05:25:47;11.50;99.90
20845;DHT22;10583;49.084;8.646;2022-09-12T05:28:14;11.50;99.90
20845;DHT22;10583;49.084;8.646;2022-09-12T05:30:40;11.50;99.90
20845;DHT22;10583;49.084;8.646;2022-09-12T05:33:08;11.60;99.90
20845;DHT22;10583;49.084;8.646;2022-09-12T05:35:35;11.60;99.90
20845;DHT22;10583;49.084;8.646;2022-09-12T05:38:03;11.80;99.90
20845;DHT22;10583;49.084;8.646;2022-09-12T05:40:30;11.90;99.90
20845;DHT22;10583;49.084;8.646;2022-09-12T05:42:57;12.10;99.90
20845;DHT22;10583;49.084;8.646;2022-09-12T05:45:24;12.10;99.90
20845;DHT22;10583;49.084;8.646;2022-09-12T05:47:51;12.20;99.90
20845;DHT22;10583;49.084;8.646;2022-09-12T05:50:19;12.20;99.90
20845;DHT22;10583;49.084;8.646;2022-09-12T05:52:46;12.20;99.90
20845;DHT22;10583;49.084;8.646;2022-09-12T05:55:13;12.40;99.90
20845;DHT22;10583;49.084;8.646;2022-09-12T05:57:42;12.50;99.90
20845;DHT22;10583;49.084;8.646;2022-09-12T06:00:12;12.60;99.90
20845;DHT22;10583;49.084;8.646;2022-09-12T06:02:39;12.70;99.90
20845;DHT22;10583;49.084;8.646;2022-09-12T06:05:06;12.90;99.90
20845;DHT22;10583;49.084;8.646;2022-09-12T06:07:34;13.00;99.90
20845;DHT22;10583;49.084;8.646;2022-09-12T06:10:01;13.20;99.90
20845;DHT22;10583;49.084;8.646;2022-09-12T06:12:28;13.30;99.90
20845;DHT22;10583;49.084;8.646;2022-09-12T06:14:55;13.50;99.90
20845;DHT22;10583;49.084;8.646;2022-09-12T06:17:22;13.60;99.90
20845;DHT22;10583;49.084;8.646;2022-09-12T06:19:48;13.70;99.90
20845;DHT22;10583;49.084;8.646;2022-09-12T06:22:15;13.90;99.90
20845;DHT22;10583;49.084;8.646;2022-09-12T06:24:43;14.10;99.90
20845;DHT22;10583;49.084;8.646;2022-09-12T06:27:10;14.30;99.90
20845;DHT22;10583;49.084;8.646;2022-09-12T06:29:37;14.50;99.90
20845;DHT22;10583;49.084;8.646;2022-09-12T06:32:03;14.60;99.90
20845;DHT22;10583;49.084;8.646;2022-09-12T06:34:31;14.80;99.90
20845;DHT22;10583;49.084;8.646;2022-09-12T06:36:58;14.90;99.90
20845;DHT22;10583;49.084;8.646;2022-09-12T06:39:24;14.90;99.90
20845;DHT22;10583;49.084;8.646;2022-09-12T06:41:52;15.00;99.90
20845;DHT22;10583;49.084;8.646;2022-09-12T06:44:21;15.20;99.90
20845;DHT22;10583;49.084;8.646;2022-09-12T06:46:48;15.30;99.90
20845;DHT22;10583;49.084;8.646;2022-09-12T06:49:15;15.50;99.90
20845;DHT22;10583;49.084;8.646;2022-09-12T06:51:41;15.60;99.90
20845;DHT22;10583;49.084;8.646;2022-09-12T06:54:11;15.80;99.90
20845;DHT22;10583;49.084;8.646;2022-09-12T06:56:38;16.00;99.90
20845;DHT22;10583;49.084;8.646;2022-09-12T06:59:06;16.20;99.90
20845;DHT22;10583;49.084;8.646;2022-09-12T07:01:33;16.40;99.90
20845;DHT22;10583;49.084;8.646;2022-09-12T07:04:01;16.50;99.90
20845;DHT22;10583;49.084;8.646;2022-09-12T07:06:34;16.50;99.90
20845;DHT22;10583;49.084;8.646;2022-09-12T07:09:03;16.70;99.90
20845;DHT22;10583;49.084;8.646;2022-09-12T07:11:32;16.80;99.90
20845;DHT22;10583;49.084;8.646;2022-09-12T07:14:00;16.90;99.90
20845;DHT22;10583;49.084;8.646;2022-09-12T07:16:29;17.00;99.90
20845;DHT22;10583;49.084;8.646;2022-09-12T07:18:57;17.20;99.90
20845;DHT22;10583;49.084;8.646;2022-09-12T07:21:24;17.50;99.90
20845;DHT22;10583;49.084;8.646;2022-09-12T07:23:51;17.70;99.90
20845;DHT22;10583;49.084;8.646;2022-09-12T07:26:20;17.80;99.90
20845;DHT22;10583;49.084;8.646;2022-09-12T07:28:50;17.90;99.90
20845;DHT22;10583;49.084;8.646;2022-09-12T07:31:19;18.00;99.90
20845;DHT22;10583;49.084;8.646;2022-09-12T07:33:49;18.30;99.90
20845;DHT22;10583;49.084;8.646;2022-09-12T07:36:18;18.40;99.90
20845;DHT22;10583;49.084;8.646;2022-09-12T07:38:45;18.60;99.90
20845;DHT22;10583;49.084;8.646;2022-09-12T07:41:12;18.90;99.90
20845;DHT22;10583;49.084;8.646;2022-09-12T07:43:39;19.10;99.90
20845;DHT22;10583;49.084;8.646;2022-09-12T07:46:06;19.10;99.90
20845;DHT22;10583;49.084;8.646;2022-09-12T07:48:33;19.30;99.90
20845;DHT22;10583;49.084;8.646;2022-09-12T07:51:03;19.40;99.90
20845;DHT22;10583;49.084;8.646;2022-09-12T07:53:33;19.40;99.90
20845;DHT22;10583;49.084;8.646;2022-09-12T07:56:00;19.50;99.90
20845;DHT22;10583;49.084;8.646;2022-09-12T07:58:29;19.50;99.90
20845;DHT22;10583;49.084;8.646;2022-09-12T08:01:01;19.90;99.90
20845;DHT22;10583;49.084;8.646;2022-09-12T08:03:27;20.30;99.90
20845;DHT22;10583;49.084;8.646;2022-09-12T08:05:54;20.40;99.90
20845;DHT22;10583;49.084;8.646;2022-09-12T08:08:22;20.60;99.90
20845;DHT22;10583;49.084;8.646;2022-09-12T08:10:56;20.60;99.90
20845;DHT22;10583;49.084;8.646;2022-09-12T08:13:22;20.80;99.90
20845;DHT22;10583;49.084;8.646;2022-09-12T08:15:49;21.10;99.90
20845;DHT22;10583;49.084;8.646;2022-09-12T08:18:16;21.30;99.90
20845;DHT22;10583;49.084;8.646;2022-09-12T08:20:42;21.30;99.90
20845;DHT22;10583;49.084;8.646;2022-09-12T08:23:09;21.30;99.90
20845;DHT22;10583;49.084;8.646;2022-09-12T08:25:37;21.50;99.90
20845;DHT22;10583;49.084;8.646;2022-09-12T08:28:04;21.60;99.90
20845;DHT22;10583;49.084;8.646;2022-09-12T08:30:31;21.80;99.90
20845;DHT22;10583;49.084;8.646;2022-09-12T08:32:59;21.90;99.90
20845;DHT22;10583;49.084;8.646;2022-09-12T08:35:25;22.00;99.90
20845;DHT22;10583;49.084;8.646;2022-09-12T08:37:52;22.30;99.90
20845;DHT22;10583;49.084;8.646;2022-09-12T08:40:19;22.40;99.90
20845;DHT22;10583;49.084;8.646;2022-09-12T08:42:53;22.50;99.90
20845;DHT22;10583;49.084;8.646;2022-09-12T08:45:26;22.40;99.90
20845;DHT22;10583;49.084;8.646;2022-09-12T08:47:55;22.60;99.90
20845;DHT22;10583;49.084;8.646;2022-09-12T08:50:22;22.80;99.90
20845;DHT22;10583;49.084;8.646;2022-09-12T08:52:55;23.10;99.90
20845;DHT22;10583;49.084;8.646;2022-09-12T08:55:29;23.50;99.90
20845;DHT22;10583;49.084;8.646;2022-09-12T08:57:58;23.40;99.90
20845;DHT22;10583;49.084;8.646;2022-09-12T09:00:32;23.10;99.90
20845;DHT22;10583;49.084;8.646;2022-09-12T09:03:34;23.00;99.90
20845;DHT22;10583;49.084;8.646;2022-09-12T09:06:14;23.10;99.90
20845;DHT22;10583;49.084;8.646;2022-09-12T09:08:53;23.00;99.90
20845;DHT22;10583;49.084;8.646;2022-09-12T09:11:41;23.00;99.90
20845;DHT22;10583;49.084;8.646;2022-09-12T09:14:34;23.20;99.90
20845;DHT22;10583;49.084;8.646;2022-09-12T09:17:19;23.30;99.90
20845;DHT22;10583;49.084;8.646;2022-09-12T09:19:51;23.60;99.90
20845;DHT22;10583;49.084;8.646;2022-09-12T09:25:16;24.00;99.90
20845;DHT22;10583;49.084;8.646;2022-09-12T09:27:49;24.40;99.90
20845;DHT22;10583;49.084;8.646;2022-09-12T09:30:19;24.40;99.90
20845;DHT22;10583;49.084;8.646;2022-09-12T09:32:49;24.30;99.90
20845;DHT22;10583;49.084;8.646;2022-09-12T09:35:21;24.40;99.90
20845;DHT22;10583;49.084;8.646;2022-09-12T09:38:00;24.60;99.90
20845;DHT22;10583;49.084;8.646;2022-09-12T09:40:34;24.40;99.90
20845;DHT22;10583;49.084;8.646;2022-09-12T09:43:10;24.20;99.90
20845;DHT22;10583;49.084;8.646;2022-09-12T09:45:42;24.70;99.90
20845;DHT22;10583;49.084;8.646;2022-09-12T09:48:16;24.90;99.90
20845;DHT22;10583;49.084;8.646;2022-09-12T09:50:45;25.10;99.90
20845;DHT22;10583;49.084;8.646;2022-09-12T09:53:27;25.30;99.90
20845;DHT22;10583;49.084;8.646;2022-09-12T09:55:59;25.50;99.90
20845;DHT22;10583;49.084;8.646;2022-09-12T09:58:29;25.80;99.90
20845;DHT22;10583;49.084;8.646;2022-09-12T10:00:59;26.10;99.90
20845;DHT22;10583;49.084;8.646;2022-09-12T10:03:32;25.70;99.50
20845;DHT22;10583;49.084;8.646;2022-09-12T10:06:01;25.50;98.60
20845;DHT22;10583;49.084;8.646;2022-09-12T10:08:33;25.40;99.00
20845;DHT22;10583;49.084;8.646;2022-09-12T10:11:03;25.50;98.60
20845;DHT22;10583;49.084;8.646;2022-09-12T10:13:39;25.60;97.80
20845;DHT22;10583;49.084;8.646;2022-09-12T10:16:17;25.60;98.30
20845;DHT22;10583;49.084;8.646;2022-09-12T10:18:45;25.60;98.20
20845;DHT22;10583;49.084;8.646;2022-09-12T10:21:14;25.60;97.40
20845;DHT22;10583;49.084;8.646;2022-09-12T10:23:44;25.60;98.00
20845;DHT22;10583;49.084;8.646;2022-09-12T10:26:13;25.60;97.80
20845;DHT22;10583;49.084;8.646;2022-09-12T10:28:42;25.70;96.90
20845;DHT22;10583;49.084;8.646;2022-09-12T10:31:14;26.00;97.80
20845;DHT22;10583;49.084;8.646;2022-09-12T10:33:44;26.20;97.60
20845;DHT22;10583;49.084;8.646;2022-09-12T10:36:16;26.20;97.00
20845;DHT22;10583;49.084;8.646;2022-09-12T10:38:48;26.10;96.10
20845;DHT22;10583;49.084;8.646;2022-09-12T10:41:16;26.20;97.20
20845;DHT22;10583;49.084;8.646;2022-09-12T10:43:44;26.00;96.10
20845;DHT22;10583;49.084;8.646;2022-09-12T10:46:25;25.80;97.20
20845;DHT22;10583;49.084;8.646;2022-09-12T10:49:11;26.00;97.10
20845;DHT22;10583;49.084;8.646;2022-09-12T10:51:38;26.00;96.40
20845;DHT22;10583;49.084;8.646;2022-09-12T10:54:09;26.40;96.60
20845;DHT22;10583;49.084;8.646;2022-09-12T10:56:40;26.70;95.90
20845;DHT22;10583;49.084;8.646;2022-09-12T10:59:19;27.00;95.80
20845;DHT22;10583;49.084;8.646;2022-09-12T11:01:54;27.10;95.90
20845;DHT22;10583;49.084;8.646;2022-09-12T11:04:31;27.00;94.70
20845;DHT22;10583;49.084;8.646;2022-09-12T11:07:31;26.70;95.20
20845;DHT22;10583;49.084;8.646;2022-09-12T11:10:10;26.90;95.60
20845;DHT22;10583;49.084;8.646;2022-09-12T11:12:45;27.10;94.80
20845;DHT22;10583;49.084;8.646;2022-09-12T11:15:30;27.20;94.80
20845;DHT22;10583;49.084;8.646;2022-09-12T11:18:06;27.30;94.80
20845;DHT22;10583;49.084;8.646;2022-09-12T11:20:47;27.20;94.50
20845;DHT22;10583;49.084;8.646;2022-09-12T11:26:41;27.10;94.50
20845;DHT22;10583;49.084;8.646;2022-09-12T11:29:16;27.00;94.40
20845;DHT22;10583;49.084;8.646;2022-09-12T11:31:58;27.10;94.40
20845;DHT22;10583;49.084;8.646;2022-09-12T11:34:37;27.50;94.30
20845;DHT22;10583;49.084;8.646;2022-09-12T11:37:19;27.90;94.10
20845;DHT22;10583;49.084;8.646;2022-09-12T11:39:50;28.30;93.50
20845;DHT22;10583;49.084;8.646;2022-09-12T11:42:22;28.30;92.50
20845;DHT22;10583;49.084;8.646;2022-09-12T11:44:57;28.20;93.20
20845;DHT22;10583;49.084;8.646;2022-09-12T11:47:28;28.30;93.20
20845;DHT22;10583;49.084;8.646;2022-09-12T11:50:02;28.30;93.10
20845;DHT22;10583;49.084;8.646;2022-09-12T11:52:36;28.40;92.70
20845;DHT22;10583;49.084;8.646;2022-09-12T11:55:06;28.30;92.60
20845;DHT22;10583;49.084;8.646;2022-09-12T11:57:39;28.40;92.10
20845;DHT22;10583;49.084;8.646;2022-09-12T12:00:16;28.30;92.40
20845;DHT22;10583;49.084;8.646;2022-09-12T12:02:54;28.30;92.10
20845;DHT22;10583;49.084;8.646;2022-09-12T12:05:27;28.60;91.40
20845;DHT22;10583;49.084;8.646;2022-09-12T12:07:56;28.50;90.40
20845;DHT22;10583;49.084;8.646;2022-09-12T12:10:28;28.10;90.70
20845;DHT22;10583;49.084;8.646;2022-09-12T12:12:58;28.10;90.60
20845;DHT22;10583;49.084;8.646;2022-09-12T12:15:26;28.20;91.60
20845;DHT22;10583;49.084;8.646;2022-09-12T12:18:02;28.70;91.60
20845;DHT22;10583;49.084;8.646;2022-09-12T12:20:31;28.70;91.10
20845;DHT22;10583;49.084;8.646;2022-09-12T12:22:59;28.70;90.50
20845;DHT22;10583;49.084;8.646;2022-09-12T12:25:38;28.70;89.40
20845;DHT22;10583;49.084;8.646;2022-09-12T12:28:06;28.40;90.90
20845;DHT22;10583;49.084;8.646;2022-09-12T12:31:00;28.60;90.20
20845;DHT22;10583;49.084;8.646;2022-09-12T12:36:41;28.80;89.70
20845;DHT22;10583;49.084;8.646;2022-09-12T12:45:58;28.50;88.90
20845;DHT22;10583;49.084;8.646;2022-09-12T12:48:29;28.60;90.00
20845;DHT22;10583;49.084;8.646;2022-09-12T12:51:24;28.30;90.00
20845;DHT22;10583;49.084;8.646;2022-09-12T12:53:53;28.30;89.60
20845;DHT22;10583;49.084;8.646;2022-09-12T12:56:27;28.50;90.50
20845;DHT22;10583;49.084;8.646;2022-09-12T12:58:58;28.80;89.30
20845;DHT22;10583;49.084;8.646;2022-09-12T13:01:25;28.70;87.30
20845;DHT22;10583;49.084;8.646;2022-09-12T13:03:56;28.20;88.40
20845;DHT22;10583;49.084;8.646;2022-09-12T13:06:33;28.00;90.30
20845;DHT22;10583;49.084;8.646;2022-09-12T13:09:04;28.10;88.90
20845;DHT22;10583;49.084;8.646;2022-09-12T13:11:34;28.00;88.90
20845;DHT22;10583;49.084;8.646;2022-09-12T13:14:03;28.30;88.90
20845;DHT22;10583;49.084;8.646;2022-09-12T13:16:33;28.50;88.40
20845;DHT22;10583;49.084;8.646;2022-09-12T13:19:05;28.50;88.80
20845;DHT22;10583;49.084;8.646;2022-09-12T13:21:33;28.50;90.10
20845;DHT22;10583;49.084;8.646;2022-09-12T13:24:03;28.50;89.70
20845;DHT22;10583;49.084;8.646;2022-09-12T13:26:41;28.30;87.90
20845;DHT22;10583;49.084;8.646;2022-09-12T13:29:14;28.00;89.00
20845;DHT22;10583;49.084;8.646;2022-09-12T13:31:42;27.70;89.40
20845;DHT22;10583;49.084;8.646;2022-09-12T13:34:09;27.40;87.70
20845;DHT22;10583;49.084;8.646;2022-09-12T13:36:56;27.10;89.00
20845;DHT22;10583;49.084;8.646;2022-09-12T13:39:38;26.90;89.20
20845;DHT22;10583;49.084;8.646;2022-09-12T13:42:36;26.90;89.70
20845;DHT22;10583;49.084;8.646;2022-09-12T13:45:06;26.80;90.00
20845;DHT22;10583;49.084;8.646;2022-09-12T13:47:39;26.80;90.40
20845;DHT22;10583;49.084;8.646;2022-09-12T13:50:11;26.80;90.80
20845;DHT22;10583;49.084;8.646;2022-09-12T13:52:45;26.70;90.40
20845;DHT22;10583;49.084;8.646;2022-09-12T13:55:25;26.60;91.70
20845;DHT22;10583;49.084;8.646;2022-09-12T13:57:59;26.50;90.00
20845;DHT22;10583;49.084;8.646;2022-09-12T14:00:26;26.40;89.50
20845;DHT22;10583;49.084;8.646;2022-09-12T14:02:53;26.30;90.80
20845;DHT22;10583;49.084;8.646;2022-09-12T14:05:43;26.40;90.60
20845;DHT22;10583;49.084;8.646;2022-09-12T14:08:12;26.30;90.60
20845;DHT22;10583;49.084;8.646;2022-09-12T14:10:42;26.20;90.70
20845;DHT22;10583;49.084;8.646;2022-09-12T14:13:11;26.00;90.70
20845;DHT22;10583;49.084;8.646;2022-09-12T14:15:43;25.90;91.70
20845;DHT22;10583;49.084;8.646;2022-09-12T14:18:21;26.00;91.10
20845;DHT22;10583;49.084;8.646;2022-09-12T14:20:49;26.00;91.70
20845;DHT22;10583;49.084;8.646;2022-09-12T14:23:20;26.00;91.00
20845;DHT22;10583;49.084;8.646;2022-09-12T14:25:53;26.10;90.00
20845;DHT22;10583;49.084;8.646;2022-09-12T14:28:21;26.00;90.10
20845;DHT22;10583;49.084;8.646;2022-09-12T14:31:00;26.00;90.80
20845;DHT22;10583;49.084;8.646;2022-09-12T14:33:30;26.00;90.40
20845;DHT22;10583;49.084;8.646;2022-09-12T14:36:16;26.00;91.00
20845;DHT22;10583;49.084;8.646;2022-09-12T14:38:47;26.00;88.20
20845;DHT22;10583;49.084;8.646;2022-09-12T14:41:22;25.90;88.20
20845;DHT22;10583;49.084;8.646;2022-09-12T14:43:51;25.70;89.60
20845;DHT22;10583;49.084;8.646;2022-09-12T14:46:23;25.70;89.00
20845;DHT22;10583;49.084;8.646;2022-09-12T14:48:53;25.60;90.60
20845;DHT22;10583;49.084;8.646;2022-09-12T14:51:25;25.70;90.00
20845;DHT22;10583;49.084;8.646;2022-09-12T14:53:52;25.70;91.50
20845;DHT22;10583;49.084;8.646;2022-09-12T14:56:21;25.70;91.10
20845;DHT22;10583;49.084;8.646;2022-09-12T14:59:19;25.70;90.00
20845;DHT22;10583;49.084;8.646;2022-09-12T15:02:23;25.70;90.50
20845;DHT22;10583;49.084;8.646;2022-09-12T15:04:51;25.70;90.50
20845;DHT22;10583;49.084;8.646;2022-09-12T15:07:27;25.70;90.20
20845;DHT22;10583;49.084;8.646;2022-09-12T15:09:55;25.70;90.00
20845;DHT22;10583;49.084;8.646;2022-09-12T15:12:24;25.60;90.00
20845;DHT22;10583;49.084;8.646;2022-09-12T15:14:51;25.60;89.80
20845;DHT22;10583;49.084;8.646;2022-09-12T15:17:18;25.50;90.10
20845;DHT22;10583;49.084;8.646;2022-09-12T15:19:45;25.40;90.20
20845;DHT22;10583;49.084;8.646;2022-09-12T15:22:12;25.40;90.40
20845;DHT22;10583;49.084;8.646;2022-09-12T15:24:39;25.30;90.10
20845;DHT22;10583;49.084;8.646;2022-09-12T15:27:08;25.30;90.20
20845;DHT22;10583;49.084;8.646;2022-09-12T15:29:37;25.20;90.30
20845;DHT22;10583;49.084;8.646;2022-09-12T15:32:04;25.20;90.30
20845;DHT22;10583;49.084;8.646;2022-09-12T15:34:31;25.20;90.90
20845;DHT22;10583;49.084;8.646;2022-09-12T15:36:58;25.20;91.10
20845;DHT22;10583;49.084;8.646;2022-09-12T15:39:24;25.20;90.60
20845;DHT22;10583;49.084;8.646;2022-09-12T15:41:52;25.30;88.70
20845;DHT22;10583;49.084;8.646;2022-09-12T15:44:18;25.30;89.80
20845;DHT22;10583;49.084;8.646;2022-09-12T15:46:47;25.20;90.30
20845;DHT22;10583;49.084;8.646;2022-09-12T15:49:13;25.20;89.80
20845;DHT22;10583;49.084;8.646;2022-09-12T15:51:40;25.20;89.20
20845;DHT22;10583;49.084;8.646;2022-09-12T15:54:09;25.10;90.10
20845;DHT22;10583;49.084;8.646;2022-09-12T15:56:37;25.20;90.00
20845;DHT22;10583;49.084;8.646;2022-09-12T15:59:03;25.10;90.80
20845;DHT22;10583;49.084;8.646;2022-09-12T16:01:30;25.10;90.30
20845;DHT22;10583;49.084;8.646;2022-09-12T16:03:58;25.00;90.30
20845;DHT22;10583;49.084;8.646;2022-09-12T16:06:27;24.90;90.60
20845;DHT22;10583;49.084;8.646;2022-09-12T16:08:55;24.90;90.60
20845;DHT22;10583;49.084;8.646;2022-09-12T16:11:24;24.90;90.50
20845;DHT22;10583;49.084;8.646;2022-09-12T16:13:52;24.90;90.80
20845;DHT22;10583;49.084;8.646;2022-09-12T16:16:19;24.90;90.80
20845;DHT22;10583;49.084;8.646;2022-09-12T16:18:46;24.90;90.60